Time;durP1;ratioP1;P1;durP2;ratioP2;P2;SDS_P1;SDS_P2;PMS_P1;PMS_P2;Temp;Humidity;BMP_temperature;BMP_pressure;BME280_temperature;BME280_humidity;BME280_pressure;Samples;Min_cycle;Max_cycle;Signal;HPM_P1;HPM_P2
2023/11/07 00:02:08;;;;;;;1.40;1.00;;;;;;;6.94;100.00;153143.34;4977290;28;20755;-84
2023/11/07 00:04:35;;;;;;;1.50;1.20;;;;;;;6.88;100.00;153127.88;4992479;28;20450;-84
2023/11/07 00:07:03;;;;;;;1.50;1.10;;;;;;;6.87;100.00;153125.28;4976366;28;20450;-84
2023/11/07 00:09:30;;;;;;;1.40;0.87;;;;;;;6.84;100.00;153117.53;4960712;28;20440;-84
2023/11/07 00:11:59;;;;;;;2.20;0.93;;;;;;;6.82;100.00;153112.38;4975896;28;20457;-84
2023/11/07 00:14:27;;;;;;;1.17;0.83;;;;;;;6.81;100.00;153108.47;4976030;28;20756;-84
2023/11/07 00:16:58;;;;;;;1.30;0.80;;;;;;;6.79;100.00;153104.63;4960619;28;20481;-84
2023/11/07 00:19:26;;;;;;;1.37;0.93;;;;;;;6.77;100.00;153099.47;4959099;28;20454;-85
2023/11/07 00:21:55;;;;;;;1.67;1.20;;;;;;;6.73;100.00;153089.13;4960067;28;20438;-85
2023/11/07 00:24:22;;;;;;;1.50;1.00;;;;;;;6.71;100.00;153083.97;4975819;28;20534;-85
2023/11/07 00:26:51;;;;;;;1.70;1.13;;;;;;;6.68;100.00;153076.22;4976383;28;20474;-85
2023/11/07 00:29:18;;;;;;;1.80;0.90;;;;;;;6.66;100.00;153071.06;4960972;28;20431;-85
2023/11/07 00:31:47;;;;;;;1.00;0.77;;;;;;;6.68;100.00;153076.22;4977307;28;20419;-85
2023/11/07 00:34:16;;;;;;;1.63;1.00;;;;;;;6.65;100.00;153068.47;4960289;28;20453;-84
2023/11/07 00:36:43;;;;;;;2.07;0.77;;;;;;;6.61;100.00;153058.16;4976732;28;20506;-85
2023/11/07 00:39:11;;;;;;;1.73;1.10;;;;;;;6.61;100.00;153059.47;4947133;28;20497;-85
2023/11/07 00:41:38;;;;;;;1.90;0.90;;;;;;;6.59;100.00;153054.28;4979623;28;20474;-85
2023/11/07 00:44:06;;;;;;;1.03;0.80;;;;;;;6.61;100.00;153058.16;4995429;28;20442;-85
2023/11/07 00:46:33;;;;;;;1.30;0.70;;;;;;;6.63;100.00;153063.31;4960649;28;20450;-85
2023/11/07 00:49:04;;;;;;;1.60;1.00;;;;;;;6.60;100.00;153055.56;4975750;28;20436;-86
2023/11/07 00:51:31;;;;;;;1.70;1.13;;;;;;;6.57;100.00;153047.81;4975441;28;20474;-85
2023/11/07 00:54:01;;;;;;;1.90;1.07;;;;;;;6.59;100.00;153053.00;4991244;28;20457;-85
2023/11/07 00:56:29;;;;;;;1.27;0.73;;;;;;;6.59;100.00;153053.00;4991088;28;20471;-85
2023/11/07 00:58:57;;;;;;;2.60;1.40;;;;;;;6.59;100.00;153054.28;4975580;28;20443;-85
2023/11/07 01:01:24;;;;;;;2.00;0.97;;;;;;;6.55;100.00;153043.97;4975342;28;20450;-85
2023/11/07 01:03:52;;;;;;;2.10;0.97;;;;;;;6.52;100.00;153034.91;4959373;28;20454;-85
2023/11/07 01:06:21;;;;;;;1.43;0.93;;;;;;;6.45;100.00;153016.88;4975127;28;20454;-85
2023/11/07 01:08:48;;;;;;;1.90;0.90;;;;;;;6.49;100.00;153027.16;4975711;28;20453;-84
2023/11/07 01:11:15;;;;;;;1.10;0.70;;;;;;;6.43;100.00;153011.72;4959986;28;20454;-84
2023/11/07 01:13:42;;;;;;;1.73;0.90;;;;;;;6.42;100.00;153009.13;4959767;28;20529;-85
2023/11/07 01:16:11;;;;;;;1.63;0.90;;;;;;;6.40;100.00;153003.97;4975392;28;20451;-85
2023/11/07 01:18:38;;;;;;;2.43;1.17;;;;;;;6.37;100.00;152996.22;4960195;28;20447;-85
2023/11/07 01:21:07;;;;;;;1.97;0.90;;;;;;;6.36;100.00;152993.63;4943782;28;20485;-85
2023/11/07 01:23:37;;;;;;;1.50;0.90;;;;;;;6.32;100.00;152984.63;4960053;28;20457;-84
2023/11/07 01:26:05;;;;;;;1.07;0.83;;;;;;;6.30;100.00;152978.16;4959863;28;20474;-85
2023/11/07 01:28:33;;;;;;;2.17;1.10;;;;;;;6.29;100.00;152975.56;4959395;28;20573;-86
2023/11/07 01:31:03;;;;;;;1.67;0.80;;;;;;;6.28;100.00;152974.28;4960289;28;20454;-85
2023/11/07 01:33:31;;;;;;;2.83;1.03;;;;;;;6.22;100.00;152957.53;4975904;28;20498;-85
2023/11/07 01:35:58;;;;;;;2.00;0.83;;;;;;;6.18;100.00;152947.19;4976117;28;20450;-85
2023/11/07 01:38:27;;;;;;;2.17;1.00;;;;;;;6.14;100.00;152939.44;4975952;28;20473;-84
2023/11/07 01:40:56;;;;;;;1.30;1.00;;;;;;;6.07;100.00;152920.09;4992475;28;20538;-85
2023/11/07 01:43:24;;;;;;;1.60;1.13;;;;;;;5.99;100.00;152900.75;4976085;28;20447;-85
2023/11/07 01:45:51;;;;;;;1.50;1.00;;;;;;;5.98;100.00;152898.16;4960356;28;20457;-85
2023/11/07 01:48:22;;;;;;;1.63;1.10;;;;;;;5.99;100.00;152900.75;4960039;28;20462;-85
2023/11/07 01:50:50;;;;;;;1.60;1.00;;;;;;;5.96;100.00;152891.69;4976155;28;20454;-85
2023/11/07 01:53:17;;;;;;;1.37;1.23;;;;;;;5.97;100.00;152895.59;4976720;28;20473;-84
2023/11/07 01:55:44;;;;;;;2.10;1.00;;;;;;;5.97;100.00;152895.59;4976143;28;20713;-84
2023/11/07 01:58:17;;;;;;;1.73;1.30;;;;;;;5.98;100.00;152896.91;4976950;28;20485;-84
2023/11/07 02:00:45;;;;;;;1.57;1.00;;;;;;;5.96;100.00;152891.69;4961298;28;20461;-84
2023/11/07 02:03:13;;;;;;;1.33;1.07;;;;;;;5.96;100.00;152893.00;4977890;28;20458;-84
2023/11/07 02:05:42;;;;;;;1.83;1.23;;;;;;;5.98;100.00;152896.91;4977933;28;20533;-85
2023/11/07 02:08:09;;;;;;;2.13;1.10;;;;;;;5.99;100.00;152899.44;4973483;28;20434;-85
2023/11/07 02:10:37;;;;;;;1.50;1.10;;;;;;;5.99;100.00;152900.75;4973294;28;20447;-84
2023/11/07 02:13:04;;;;;;;1.20;1.00;;;;;;;6.00;100.00;152903.34;4973778;28;20497;-84
2023/11/07 02:15:38;;;;;;;1.90;1.10;;;;;;;6.00;100.00;152903.34;4973707;28;20455;-84
2023/11/07 02:18:06;;;;;;;1.50;1.00;;;;;;;5.98;100.00;152898.16;4957715;28;20482;-84
2023/11/07 02:20:36;;;;;;;2.17;0.80;;;;;;;5.96;100.00;152891.69;4975396;28;20457;-85
2023/11/07 02:23:05;;;;;;;2.10;0.90;;;;;;;5.96;100.00;152891.69;4973584;28;20784;-85
2023/11/07 02:25:34;;;;;;;1.43;1.10;;;;;;;5.96;100.00;152893.00;4974090;28;20462;-85
2023/11/07 02:28:01;;;;;;;1.90;1.40;;;;;;;5.98;100.00;152898.16;4973019;28;20716;-85
2023/11/07 02:30:29;;;;;;;1.87;1.20;;;;;;;5.96;100.00;152893.00;4976861;28;20521;-85
2023/11/07 02:32:57;;;;;;;1.67;0.97;;;;;;;5.99;100.00;152899.44;4976849;28;20443;-85
2023/11/07 02:35:27;;;;;;;2.17;1.10;;;;;;;5.98;100.00;152898.16;4994246;28;20493;-85
2023/11/07 02:37:55;;;;;;;1.07;0.80;;;;;;;5.95;100.00;152890.44;4977407;28;20467;-85
2023/11/07 02:40:23;;;;;;;1.30;0.80;;;;;;;5.99;100.00;152900.75;4994618;28;20442;-85
2023/11/07 02:42:51;;;;;;;1.40;0.80;;;;;;;6.02;100.00;152908.50;4977262;28;20522;-85
2023/11/07 02:45:19;;;;;;;1.00;0.70;;;;;;;6.00;100.00;152903.34;4962205;28;20427;-85
2023/11/07 02:47:47;;;;;;;1.10;0.70;;;;;;;6.01;100.00;152904.66;4960947;28;20526;-85
2023/11/07 02:50:14;;;;;;;1.40;0.93;;;;;;;6.01;100.00;152905.88;4973380;28;20486;-85
2023/11/07 02:52:45;;;;;;;1.00;0.60;;;;;;;6.03;100.00;152909.78;4973254;28;20438;-85
2023/11/07 02:55:12;;;;;;;1.30;0.90;;;;;;;6.05;100.00;152914.94;4957525;28;20441;-84
2023/11/07 02:57:39;;;;;;;1.00;0.70;;;;;;;6.06;100.00;152918.78;4956831;28;20508;-84
2023/11/07 03:00:13;;;;;;;1.30;0.97;;;;;;;6.08;100.00;152923.97;4973460;28;20457;-84
2023/11/07 03:02:40;;;;;;;1.43;1.00;;;;;;;6.12;100.00;152932.97;4973503;28;20478;-86
2023/11/07 03:05:11;;;;;;;1.83;0.73;;;;;;;6.19;100.00;152951.06;4973659;28;20629;-85
2023/11/07 03:07:38;;;;;;;1.30;0.87;;;;;;;6.24;100.00;152962.66;4973527;28;20430;-85
2023/11/07 03:10:10;;;;;;;1.13;0.80;;;;;;;6.31;100.00;152980.72;4957949;28;20466;-85
2023/11/07 03:12:37;;;;;;;1.83;1.10;;;;;;;6.33;100.00;152985.91;4957024;28;20491;-85
2023/11/07 03:15:06;;;;;;;1.60;1.00;;;;;;;6.35;100.00;152991.06;4973475;28;20775;-85
2023/11/07 03:17:34;;;;;;;1.70;1.00;;;;;;;6.36;100.00;152994.91;4957322;28;20482;-85
2023/11/07 03:20:04;;;;;;;1.10;0.73;;;;;;;6.39;100.00;153001.38;4957551;28;20478;-85
2023/11/07 03:22:31;;;;;;;1.53;1.07;;;;;;;6.42;100.00;153009.13;4989369;28;20442;-85
2023/11/07 03:24:59;;;;;;;1.13;0.80;;;;;;;6.44;100.00;153014.28;4957208;28;20485;-85
2023/11/07 03:27:27;;;;;;;1.00;0.70;;;;;;;6.43;100.00;153011.72;4972927;28;20470;-85
2023/11/07 03:29:55;;;;;;;1.60;0.70;;;;;;;6.42;100.00;153010.41;4973741;28;20449;-85
2023/11/07 03:32:25;;;;;;;1.00;0.70;;;;;;;6.40;100.00;153003.97;4958350;28;20454;-85
2023/11/07 03:34:57;;;;;;;0.80;0.40;;;;;;;6.38;100.00;153000.06;4973671;28;20850;-85
2023/11/07 03:37:26;;;;;;;1.50;0.80;;;;;;;6.32;100.00;152984.63;4958042;28;20490;-85
2023/11/07 03:39:53;;;;;;;1.70;0.70;;;;;;;6.29;100.00;152975.56;4973511;28;20485;-85
2023/11/07 03:42:20;;;;;;;1.10;0.73;;;;;;;6.28;100.00;152972.97;4973735;28;20463;-84
2023/11/07 03:44:47;;;;;;;1.83;0.60;;;;;;;6.26;100.00;152967.81;4973410;28;20493;-86
2023/11/07 03:47:15;;;;;;;1.20;0.73;;;;;;;6.24;100.00;152962.66;4973581;28;20450;-86
2023/11/07 03:49:43;;;;;;;1.00;0.70;;;;;;;6.16;100.00;152942.03;4973755;28;20442;-85
2023/11/07 03:52:14;;;;;;;2.30;1.20;;;;;;;6.12;100.00;152934.28;4973167;28;20502;-85
2023/11/07 03:54:41;;;;;;;2.00;0.97;;;;;;;6.08;100.00;152923.97;4961032;28;20530;-86
2023/11/07 03:57:11;;;;;;;1.10;0.67;;;;;;;6.06;100.00;152917.53;4982464;28;20501;-86
2023/11/07 03:59:38;;;;;;;1.77;1.20;;;;;;;6.07;100.00;152921.38;4966891;28;20438;-84
2023/11/07 04:02:06;;;;;;;1.30;0.80;;;;;;;6.03;100.00;152909.78;4967613;28;20430;-85
2023/11/07 04:04:34;;;;;;;1.57;1.00;;;;;;;6.00;100.00;152903.34;4963714;28;20435;-85
2023/11/07 04:07:01;;;;;;;2.00;1.17;;;;;;;5.99;100.00;152899.44;4979976;28;20431;-85
2023/11/07 04:09:36;;;;;;;1.20;0.80;;;;;;;5.97;100.00;152895.59;4996663;28;20889;-85
2023/11/07 04:12:05;;;;;;;1.60;1.07;;;;;;;5.97;100.00;152895.59;4994462;28;20475;-84
2023/11/07 04:14:33;;;;;;;1.50;1.00;;;;;;;5.94;100.00;152886.56;4992806;28;20446;-85
2023/11/07 04:17:03;;;;;;;2.43;0.83;;;;;;;5.92;100.00;152882.69;4960029;28;20453;-85
2023/11/07 04:19:33;;;;;;;1.60;0.90;;;;;;;5.93;100.00;152885.25;4976696;28;20447;-85
2023/11/07 04:22:01;;;;;;;3.43;1.00;;;;;;;5.92;100.00;152882.69;4960206;28;20451;-85
2023/11/07 04:24:29;;;;;;;1.20;0.90;;;;;;;5.91;100.00;152880.09;4976499;28;20894;-85
2023/11/07 04:26:58;;;;;;;1.40;0.80;;;;;;;5.91;100.00;152880.09;4975687;28;20509;-85
2023/11/07 04:29:26;;;;;;;1.10;0.83;;;;;;;5.91;100.00;152880.09;4960611;28;20443;-86
2023/11/07 04:31:54;;;;;;;1.27;0.60;;;;;;;5.90;100.00;152876.25;4960903;28;20457;-85
2023/11/07 04:34:24;;;;;;;1.40;0.97;;;;;;;5.86;100.00;152867.22;4960951;28;20446;-85
2023/11/07 04:36:53;;;;;;;2.07;0.90;;;;;;;5.88;100.00;152872.34;4960088;28;20451;-85
2023/11/07 04:39:20;;;;;;;1.90;1.20;;;;;;;5.85;100.00;152864.63;4976229;28;20462;-85
2023/11/07 04:41:48;;;;;;;1.00;0.67;;;;;;;5.85;100.00;152863.38;4976121;28;20447;-85
2023/11/07 04:44:20;;;;;;;1.50;0.90;;;;;;;5.86;100.00;152865.91;4976956;28;20486;-85
2023/11/07 04:46:47;;;;;;;1.30;1.13;;;;;;;5.85;100.00;152863.38;4977634;28;20550;-85
2023/11/07 04:49:15;;;;;;;2.23;1.10;;;;;;;5.82;100.00;152856.88;4960611;28;20446;-85
2023/11/07 04:51:42;;;;;;;1.50;1.17;;;;;;;5.80;100.00;152850.44;4977871;28;20469;-86
2023/11/07 05:12:54;;;;;;;1.70;1.20;;;;;;;5.65;100.00;152813.00;4926971;28;20605;-77
2023/11/07 05:38:39;;;;;;;1.60;1.13;;;;;;;5.35;100.00;152735.63;4977085;23;20585;-76
2023/11/07 05:41:08;;;;;;;1.73;1.30;;;;;;;5.36;100.00;152739.50;4961102;28;20545;-75
2023/11/07 05:43:34;;;;;;;2.37;1.50;;;;;;;5.38;100.00;152743.34;4963060;28;20450;-75
2023/11/07 05:46:02;;;;;;;1.73;1.50;;;;;;;5.39;100.00;152745.94;4965157;28;20961;-75
2023/11/07 05:48:29;;;;;;;2.13;1.40;;;;;;;5.39;100.00;152747.25;4962449;28;20512;-75
2023/11/07 05:50:55;;;;;;;2.23;1.70;;;;;;;5.40;100.00;152749.81;4968504;28;20430;-75
2023/11/07 05:53:22;;;;;;;2.00;1.73;;;;;;;5.41;100.00;152751.09;4960840;28;20478;-76
2023/11/07 05:55:49;;;;;;;2.37;1.57;;;;;;;5.43;100.00;152757.53;4954752;28;20462;-75
2023/11/07 05:58:17;;;;;;;1.80;1.17;;;;;;;5.44;100.00;152758.84;4976965;28;21043;-75
2023/11/07 06:00:44;;;;;;;1.13;1.03;;;;;;;5.45;100.00;152762.69;4958321;28;20473;-75
2023/11/07 06:03:13;;;;;;;1.57;1.27;;;;;;;5.46;100.00;152764.00;4966553;28;20467;-75
2023/11/07 06:05:40;;;;;;;2.73;1.40;;;;;;;5.48;100.00;152769.19;4966491;28;20661;-75
2023/11/07 06:08:07;;;;;;;2.03;1.50;;;;;;;5.46;100.00;152764.00;4964794;28;20464;-75
2023/11/07 06:10:34;;;;;;;2.87;1.97;;;;;;;5.49;100.00;152771.72;4965135;28;20580;-75
2023/11/07 06:13:04;;;;;;;2.07;1.77;;;;;;;5.48;100.00;152770.44;4970279;28;20470;-74
2023/11/07 06:15:32;;;;;;;4.23;2.03;;;;;;;5.46;100.00;152764.00;4970969;28;20884;-75
2023/11/07 06:17:58;;;;;;;1.73;1.57;;;;;;;5.45;100.00;152761.44;4964831;28;22077;-75
2023/11/07 06:20:25;;;;;;;2.17;1.73;;;;;;;5.43;100.00;152756.25;4961918;28;20941;-75
2023/11/07 06:22:52;;;;;;;2.63;2.00;;;;;;;5.46;100.00;152765.28;4976143;28;20463;-75
2023/11/07 06:25:19;;;;;;;2.60;1.60;;;;;;;5.48;100.00;152769.19;4966274;28;20442;-74
2023/11/07 06:27:47;;;;;;;3.43;1.97;;;;;;;5.47;100.00;152766.59;4977619;28;21363;-74
2023/11/07 06:30:17;;;;;;;2.30;1.67;;;;;;;5.46;100.00;152764.00;4963763;28;20465;-75
2023/11/07 06:32:52;;;;;;;2.80;1.80;;;;;;;5.46;100.00;152764.00;4971837;28;20461;-75
2023/11/07 06:35:19;;;;;;;2.63;1.77;;;;;;;5.49;100.00;152773.03;4945899;28;20469;-75
2023/11/07 06:37:46;;;;;;;4.30;2.10;;;;;;;5.52;100.00;152780.78;4972400;28;20485;-75
2023/11/07 06:40:14;;;;;;;2.57;2.00;;;;;;;5.55;100.00;152787.22;4969194;28;20461;-75
2023/11/07 06:42:41;;;;;;;2.23;1.90;;;;;;;5.58;100.00;152793.66;4984791;28;20481;-75
2023/11/07 06:48:03;;;;;;;2.50;2.30;;;;;;;5.74;100.00;152836.22;4966564;28;20458;-75
2023/11/07 06:50:33;;;;;;;2.13;1.93;;;;;;;5.90;100.00;152877.56;4967622;28;20481;-75
2023/11/07 06:53:00;;;;;;;3.13;2.57;;;;;;;6.13;100.00;152936.88;4964405;28;20472;-75
2023/11/07 06:55:29;;;;;;;3.90;2.40;;;;;;;6.56;100.00;153045.25;4982740;28;20551;-76
2023/11/07 06:57:56;;;;;;;3.23;2.20;;;;;;;7.24;100.00;153219.53;4951264;28;20817;-75
2023/11/07 07:00:24;;;;;;;2.43;2.03;;;;;;;7.78;100.00;153357.72;4985852;28;20485;-75
2023/11/07 07:02:54;;;;;;;2.67;2.20;;;;;;;7.90;100.00;153388.72;4986483;28;20493;-75
2023/11/07 07:05:23;;;;;;;3.00;2.47;;;;;;;7.68;100.00;153331.84;4985798;28;20455;-75
2023/11/07 07:07:49;;;;;;;2.40;1.83;;;;;;;7.36;100.00;153251.78;4966183;28;20464;-74
2023/11/07 07:10:17;;;;;;;2.37;1.80;;;;;;;7.10;100.00;153184.66;4966517;28;20972;-75
2023/11/07 07:12:43;;;;;;;2.33;1.90;;;;;;;6.94;100.00;153143.34;4985902;28;20794;-75
2023/11/07 07:15:10;;;;;;;2.10;1.90;;;;;;;6.78;100.00;153100.78;4984363;28;20469;-74
2023/11/07 07:17:37;;;;;;;2.03;1.50;;;;;;;6.77;100.00;153099.47;4966943;28;20453;-75
2023/11/07 07:20:11;;;;;;;3.50;1.80;;;;;;;7.62;100.00;153316.41;4976942;28;20465;-75
2023/11/07 07:22:39;;;;;;;2.17;1.97;;;;;;;8.14;100.00;153450.75;4952451;28;20540;-75
2023/11/07 07:25:07;;;;;;;3.43;2.20;;;;;;;8.59;100.00;153565.81;4968729;28;20448;-74
2023/11/07 07:27:34;;;;;;;2.50;1.80;;;;;;;9.28;100.00;153741.69;4966536;28;20473;-74
2023/11/07 07:30:01;;;;;;;4.07;2.67;;;;;;;9.71;100.00;153852.94;4988641;28;20457;-74
2023/11/07 07:32:27;;;;;;;3.17;2.10;;;;;;;9.39;97.95;153771.44;4972930;28;20453;-76
2023/11/07 07:34:54;;;;;;;2.70;2.30;;;;;;;9.10;98.61;153696.41;4988336;28;20449;-76
2023/11/07 07:37:21;;;;;;;3.33;2.50;;;;;;;8.78;99.83;153613.66;4987748;28;20492;-76
2023/11/07 07:39:51;;;;;;;2.03;1.80;;;;;;;8.46;100.00;153533.53;4965096;28;20466;-76
2023/11/07 07:42:18;;;;;;;3.70;2.80;;;;;;;8.27;100.00;153484.41;4988745;28;20453;-74
2023/11/07 07:44:45;;;;;;;3.47;2.60;;;;;;;8.12;100.00;153444.28;4989123;28;20449;-77
2023/11/07 07:47:12;;;;;;;3.67;1.90;;;;;;;8.03;100.00;153422.31;4987948;28;20548;-74
2023/11/07 07:49:40;;;;;;;3.87;2.33;;;;;;;7.97;100.00;153406.78;4969654;28;20544;-74
2023/11/07 07:52:09;;;;;;;1.97;1.67;;;;;;;7.87;100.00;153382.25;4987186;28;20846;-75
2023/11/07 07:54:37;;;;;;;2.57;1.30;;;;;;;7.80;100.00;153364.19;4968635;28;20549;-75
2023/11/07 07:57:08;;;;;;;2.70;1.70;;;;;;;7.75;100.00;153349.97;4987536;28;20492;-75
2023/11/07 07:59:35;;;;;;;2.90;1.70;;;;;;;7.73;100.00;153344.81;4970628;28;20978;-75
2023/11/07 08:02:06;;;;;;;2.37;1.63;;;;;;;7.72;100.00;153342.22;4970052;28;20477;-75
2023/11/07 08:04:32;;;;;;;1.90;1.20;;;;;;;7.73;100.00;153344.81;4988201;28;20480;-75
2023/11/07 08:06:59;;;;;;;2.70;1.40;;;;;;;7.74;100.00;153347.38;4969870;28;20535;-76
2023/11/07 08:09:26;;;;;;;2.37;1.53;;;;;;;7.79;100.00;153360.28;4968249;28;20449;-75
2023/11/07 08:11:56;;;;;;;2.03;1.53;;;;;;;7.84;100.00;153374.50;4987276;28;20496;-75
2023/11/07 08:14:24;;;;;;;2.47;1.40;;;;;;;7.89;100.00;153386.13;4987782;28;20782;-75
2023/11/07 08:16:51;;;;;;;1.87;1.00;;;;;;;7.93;100.00;153396.47;4968133;28;20470;-75
2023/11/07 08:19:22;;;;;;;4.60;1.37;;;;;;;7.97;100.00;153408.09;4986978;28;20952;-75
2023/11/07 08:21:48;;;;;;;1.80;1.10;;;;;;;8.02;100.00;153419.75;4985898;28;20445;-75
2023/11/07 08:24:15;;;;;;;1.80;1.40;;;;;;;8.08;100.00;153433.94;4988217;28;20457;-75
2023/11/07 08:26:42;;;;;;;1.90;1.50;;;;;;;8.11;100.00;153443.00;4969426;28;20442;-75
2023/11/07 08:29:08;;;;;;;2.13;1.30;;;;;;;8.16;100.00;153455.91;4970693;28;20795;-75
2023/11/07 08:31:37;;;;;;;1.40;1.10;;;;;;;8.20;100.00;153466.28;4970838;28;20457;-75
2023/11/07 08:34:05;;;;;;;1.80;1.10;;;;;;;8.26;100.00;153481.75;4987795;28;20454;-75
2023/11/07 08:36:34;;;;;;;1.60;0.90;;;;;;;8.31;100.00;153494.72;4970444;28;20461;-75
2023/11/07 08:39:02;;;;;;;2.20;1.00;;;;;;;8.34;100.00;153502.47;4988130;28;20539;-75
2023/11/07 08:41:29;;;;;;;2.80;1.90;;;;;;;8.39;100.00;153515.38;4987862;28;20512;-75
2023/11/07 08:43:55;;;;;;;3.73;2.50;;;;;;;8.37;100.00;153510.22;4986889;28;20456;-75
2023/11/07 08:46:23;;;;;;;2.13;1.27;;;;;;;8.39;100.00;153515.38;4986262;28;20464;-75
2023/11/07 08:48:53;;;;;;;2.93;1.10;;;;;;;8.43;100.00;153524.47;4959534;28;20903;-75
2023/11/07 08:51:20;;;;;;;1.47;1.00;;;;;;;8.41;100.00;153520.59;4968403;28;20980;-75
2023/11/07 08:53:47;;;;;;;1.30;1.00;;;;;;;8.40;100.00;153516.69;4988213;28;20485;-76
2023/11/07 08:56:14;;;;;;;2.17;1.00;;;;;;;8.44;100.00;153528.34;4987497;28;20456;-76
2023/11/07 08:58:40;;;;;;;1.40;1.03;;;;;;;8.51;100.00;153546.44;4987823;28;20613;-77
2023/11/07 09:01:10;;;;;;;2.37;1.20;;;;;;;8.55;100.00;153556.75;4970318;28;20888;-76
2023/11/07 09:03:36;;;;;;;1.87;1.40;;;;;;;8.61;100.00;153569.69;4988307;28;20453;-77
2023/11/07 09:06:05;;;;;;;1.80;1.30;;;;;;;8.65;100.00;153580.03;4986652;28;20683;-77
2023/11/07 09:08:32;;;;;;;2.17;1.00;;;;;;;8.66;100.00;153582.66;4954674;28;20469;-77
2023/11/07 09:10:59;;;;;;;1.80;1.20;;;;;;;8.73;100.00;153600.72;4971231;28;20549;-77
2023/11/07 09:13:27;;;;;;;1.83;1.00;;;;;;;8.79;100.00;153617.50;4985178;28;20450;-76
2023/11/07 09:15:54;;;;;;;1.77;0.90;;;;;;;8.82;100.00;153623.97;4980794;28;20540;-77
2023/11/07 09:18:21;;;;;;;1.57;1.17;;;;;;;8.84;100.00;153630.44;4980196;28;20548;-77
2023/11/07 09:20:48;;;;;;;3.43;2.73;;;;;;;8.90;100.00;153645.97;4987369;28;21042;-76
2023/11/07 09:23:17;;;;;;;1.70;1.03;;;;;;;8.92;100.00;153651.13;4986760;28;20457;-77
2023/11/07 09:25:43;;;;;;;1.33;0.83;;;;;;;8.98;100.00;153665.34;4984102;28;21070;-77
2023/11/07 09:28:10;;;;;;;2.20;0.90;;;;;;;9.03;100.00;153678.28;4986597;28;20461;-77
2023/11/07 09:30:37;;;;;;;1.50;0.93;;;;;;;9.04;100.00;153680.88;4985338;28;20464;-77
2023/11/07 09:33:05;;;;;;;1.57;1.00;;;;;;;9.05;100.00;153684.75;4984949;28;20902;-76
2023/11/07 09:35:32;;;;;;;1.33;0.90;;;;;;;9.07;100.00;153689.97;4966681;28;20457;-77
2023/11/07 09:38:01;;;;;;;0.90;0.57;;;;;;;9.06;100.00;153687.34;4966261;28;20485;-77
2023/11/07 09:40:29;;;;;;;3.20;1.10;;;;;;;9.12;100.00;153702.88;4985346;28;20492;-75
2023/11/07 09:42:56;;;;;;;1.80;1.00;;;;;;;9.18;100.00;153717.13;4985645;28;20489;-75
2023/11/07 09:45:23;;;;;;;1.57;0.80;;;;;;;9.31;100.00;153750.75;4967960;28;21043;-76
2023/11/07 09:47:51;;;;;;;1.70;1.00;;;;;;;9.39;100.00;153771.44;4983955;28;20450;-76
2023/11/07 09:50:19;;;;;;;1.87;1.00;;;;;;;9.53;100.00;153807.63;4985919;28;20461;-77
2023/11/07 09:52:47;;;;;;;2.80;0.80;;;;;;;9.69;100.00;153849.03;4967439;28;20515;-77
2023/11/07 09:55:15;;;;;;;2.03;0.70;;;;;;;9.84;100.00;153885.28;4985805;28;20552;-77
2023/11/07 09:57:48;;;;;;;0.90;0.60;;;;;;;9.94;100.00;153911.16;4950460;28;20450;-77
2023/11/07 10:00:18;;;;;;;4.93;1.17;;;;;;;9.99;100.00;153924.09;4985295;28;20477;-77
2023/11/07 10:02:44;;;;;;;1.37;0.93;;;;;;;10.01;100.00;153929.25;4984911;28;20519;-77
2023/11/07 10:05:12;;;;;;;1.50;0.73;;;;;;;10.04;100.00;153937.03;4967788;28;21010;-77
2023/11/07 10:07:39;;;;;;;1.33;0.60;;;;;;;10.05;100.00;153940.94;4985046;28;20462;-77
2023/11/07 10:10:07;;;;;;;1.63;1.20;;;;;;;10.09;100.00;153949.97;4967606;28;20452;-77
2023/11/07 10:12:38;;;;;;;1.20;0.70;;;;;;;10.09;100.00;153949.97;4967499;28;20485;-77
2023/11/07 10:15:17;;;;;;;1.67;0.87;;;;;;;10.09;100.00;153949.97;4967043;28;20452;-77
2023/11/07 10:17:57;;;;;;;0.90;0.60;;;;;;;10.07;100.00;153944.81;4950029;28;20461;-77
2023/11/07 10:20:24;;;;;;;1.43;1.00;;;;;;;10.01;100.00;153929.25;4967340;28;20465;-77
2023/11/07 10:22:51;;;;;;;1.27;0.87;;;;;;;9.96;100.00;153916.31;4984943;28;20457;-76
2023/11/07 10:25:28;;;;;;;6.30;0.90;;;;;;;9.92;100.00;153907.28;4985152;28;20468;-76
2023/11/07 10:27:55;;;;;;;1.33;0.63;;;;;;;9.89;100.00;153898.22;4966936;28;20877;-76
2023/11/07 10:30:23;;;;;;;1.43;0.77;;;;;;;9.87;100.00;153893.06;4968111;28;20552;-77
2023/11/07 10:32:55;;;;;;;1.30;0.60;;;;;;;9.86;100.00;153890.44;4982713;28;20576;-76
2023/11/07 10:35:24;;;;;;;1.57;0.53;;;;;;;9.90;100.00;153900.81;4968111;28;20567;-77
2023/11/07 10:37:51;;;;;;;1.00;0.30;;;;;;;9.98;100.00;153921.53;4966469;28;20482;-77
2023/11/07 10:40:18;;;;;;;1.30;0.57;;;;;;;10.03;99.87;153934.47;4985545;28;20481;-77
2023/11/07 10:42:49;;;;;;;1.10;0.57;;;;;;;10.06;98.97;153943.50;4967265;28;20457;-77
2023/11/07 10:45:17;;;;;;;1.00;0.50;;;;;;;10.14;95.81;153964.25;4967936;28;20441;-76
2023/11/07 10:47:46;;;;;;;1.00;0.40;;;;;;;10.18;96.81;153973.34;4983931;28;20465;-77
2023/11/07 10:50:17;;;;;;;0.90;0.50;;;;;;;10.20;98.56;153978.50;4983813;28;20457;-76
2023/11/07 10:52:45;;;;;;;1.00;0.50;;;;;;;10.17;97.53;153972.03;4984084;28;20552;-76
2023/11/07 10:55:13;;;;;;;0.73;0.40;;;;;;;10.18;99.75;153973.34;4965865;28;20468;-76
2023/11/07 10:57:42;;;;;;;1.10;0.43;;;;;;;10.15;98.28;153965.56;4984488;28;20450;-76
2023/11/07 11:00:13;;;;;;;0.83;0.40;;;;;;;10.19;97.34;153975.94;4977772;28;20461;-76
2023/11/07 11:02:41;;;;;;;2.30;0.60;;;;;;;10.22;98.27;153983.66;4963398;28;20920;-76
2023/11/07 11:05:13;;;;;;;0.80;0.40;;;;;;;10.22;99.95;153984.97;4988822;28;20479;-76
2023/11/07 11:07:44;;;;;;;1.07;0.63;;;;;;;10.21;100.00;153981.09;4986907;28;20461;-76
2023/11/07 11:10:11;;;;;;;1.70;0.70;;;;;;;10.21;100.00;153981.09;4989710;28;20449;-77
2023/11/07 11:12:40;;;;;;;2.07;1.07;;;;;;;10.18;100.00;153974.63;4970270;28;20869;-77
2023/11/07 11:15:09;;;;;;;0.90;0.40;;;;;;;10.15;100.00;153965.56;4989100;28;20806;-75
2023/11/07 11:17:43;;;;;;;1.50;0.47;;;;;;;10.11;100.00;153956.44;4982711;28;20453;-76
2023/11/07 11:20:19;;;;;;;1.20;0.40;;;;;;;10.08;100.00;153947.41;4982278;28;20469;-76
2023/11/07 11:22:51;;;;;;;1.00;0.60;;;;;;;10.01;100.00;153929.25;4986637;28;20453;-76
2023/11/07 11:25:26;;;;;;;1.40;0.40;;;;;;;9.95;100.00;153913.75;4969626;28;20453;-76
2023/11/07 11:27:56;;;;;;;0.70;0.30;;;;;;;9.93;100.00;153908.59;4968061;28;20860;-76
2023/11/07 11:30:27;;;;;;;1.20;0.53;;;;;;;9.91;100.00;153903.38;4987973;28;20456;-76
2023/11/07 11:33:05;;;;;;;1.00;0.50;;;;;;;9.85;100.00;153889.16;4988146;28;20898;-75
2023/11/07 11:35:36;;;;;;;0.97;0.37;;;;;;;9.84;100.00;153885.28;4970955;28;20448;-76
2023/11/07 11:38:11;;;;;;;1.33;0.50;;;;;;;9.86;100.00;153890.44;4986944;28;20482;-76
2023/11/07 11:40:52;;;;;;;4.40;0.60;;;;;;;9.82;100.00;153882.69;4986251;28;20535;-76
2023/11/07 11:43:20;;;;;;;1.97;0.50;;;;;;;9.83;100.00;153883.97;4987484;28;20437;-76
2023/11/07 11:45:47;;;;;;;1.00;0.53;;;;;;;9.84;100.00;153885.28;4985930;28;20461;-76
2023/11/07 11:48:15;;;;;;;1.00;0.53;;;;;;;9.84;100.00;153885.28;4969505;28;20477;-76
2023/11/07 11:50:45;;;;;;;0.90;0.50;;;;;;;9.82;100.00;153882.69;4969553;28;20891;-76
2023/11/07 11:53:33;;;;;;;1.20;0.60;;;;;;;9.84;100.00;153885.28;4987371;28;20818;-76
2023/11/07 11:56:07;;;;;;;1.40;0.50;;;;;;;9.87;100.00;153894.34;4969770;28;20535;-76
2023/11/07 11:58:33;;;;;;;1.17;0.50;;;;;;;9.92;100.00;153906.00;4969555;28;20536;-75
2023/11/07 12:01:00;;;;;;;1.20;0.70;;;;;;;9.97;100.00;153918.91;4987293;28;20485;-75
2023/11/07 12:03:35;;;;;;;1.00;0.60;;;;;;;9.99;100.00;153925.38;4986638;28;20449;-75
2023/11/07 12:06:07;;;;;;;1.83;0.87;;;;;;;10.01;100.00;153930.56;4986982;28;20454;-76
2023/11/07 12:08:39;;;;;;;2.60;0.80;;;;;;;10.07;100.00;153944.81;4988120;28;20453;-75
2023/11/07 12:11:06;;;;;;;1.27;0.70;;;;;;;10.08;100.00;153948.72;4988174;28;20448;-75
2023/11/07 12:13:34;;;;;;;1.00;0.60;;;;;;;10.11;100.00;153955.19;4970010;28;21039;-75
2023/11/07 12:16:15;;;;;;;0.80;0.50;;;;;;;10.10;100.00;153952.56;4987443;28;20453;-74